Weather at Oristano-Fenosu Airport

Public forecast

Using degrees Celsius for public forecast. Weather courtesy of forecast.io.

Closest aviation weather report (METAR) to Oristano-Fenosu Airport

Report is more than 6 hours old.

Closest report is Decimomannu Air Base, 35.9 nm (66.5 km) SSE. Retrieved 2022/09/17 18:55 UTC (8 days ago):

LIED 171855Z 33008KT CAVOK 21/13 Q1011

Closest aviation forecast (TAF) to Oristano-Fenosu Airport

Forecast is more than 12 hours old.

Closest forecast is Decimomannu Air Base, 35.9 nm (66.5 km) SSE. Retrieved 2021-01-17 03:30 UTC (2 years ago):

TAF TAF LIED 170500Z 1703/1715 03003KT 9999 FEW020 SCT040 TEMPO 1706/1710 RA SCT020 BKN060 BECMG 1708/1710 33018KT TEMPO 1710/1715 33025G35KT TEMPO 1713/1715 RA